createdAt,value
2023-01-27T00:00:56.462Z,100371.78
2023-01-27T00:03:24.498Z,100369.44
2023-01-27T00:05:53.361Z,100365.59
2023-01-27T00:08:21.107Z,100365.94
2023-01-27T00:11:08.629Z,100362.19
2023-01-27T00:13:35.333Z,100364.72
2023-01-27T00:16:03.013Z,100364.72
2023-01-27T00:18:30.658Z,100367.84
2023-01-27T00:21:16.939Z,100360.09
2023-01-27T00:24:02.550Z,100362.53
2023-01-27T00:26:30.184Z,100362.53
2023-01-27T00:28:57.783Z,100364.28
2023-01-27T00:31:42.837Z,100364.28
2023-01-27T00:34:10.454Z,100364.28
2023-01-27T00:36:42.342Z,100364.72
2023-01-27T00:39:12.148Z,100366.03
2023-01-27T00:41:40.404Z,100369.44
2023-01-27T00:44:12.595Z,100362.53
2023-01-27T00:46:41.185Z,100359.03
2023-01-27T00:49:10.445Z,100348.13
2023-01-27T00:51:38.276Z,100349.88
2023-01-27T00:54:07.298Z,100347.34
2023-01-27T00:56:35.655Z,100354.16
2023-01-27T00:59:03.433Z,100352.28
2023-01-27T01:01:31.684Z,100351.50
2023-01-27T01:03:59.331Z,100350.63
2023-01-27T01:06:27.571Z,100357.91
2023-01-27T01:08:57.361Z,100356.69
2023-01-27T01:11:26.872Z,100350.84
2023-01-27T01:13:56.269Z,100348.44
2023-01-27T01:16:25.545Z,100349.53
2023-01-27T01:18:54.084Z,100351.97
2023-01-27T01:21:21.913Z,100363.06
2023-01-27T01:23:49.634Z,100354.59
2023-01-27T01:26:18.565Z,100360.00
2023-01-27T01:28:48.472Z,100353.06
2023-01-27T01:31:18.565Z,100360.78
2023-01-27T01:33:46.687Z,100355.47
2023-01-27T01:36:15.632Z,100350.22
2023-01-27T01:38:43.660Z,100353.72
2023-01-27T01:41:14.533Z,100346.22
2023-01-27T01:43:42.289Z,100339.41
2023-01-27T01:46:16.434Z,100336.88
2023-01-27T01:48:49.383Z,100336.97
2023-01-27T01:51:22.249Z,100346.03
2023-01-27T01:53:55.957Z,100337.66
2023-01-27T01:56:26.875Z,100336.44
2023-01-27T01:58:58.707Z,100327.00
2023-01-27T02:01:26.297Z,100330.59
2023-01-27T02:04:00.105Z,100329.63
2023-01-27T02:06:29.325Z,100332.25
2023-01-27T02:08:58.677Z,100330.59
2023-01-27T02:11:26.295Z,100332.47
2023-01-27T02:13:53.991Z,100334.13
2023-01-27T02:16:21.589Z,100336.44
2023-01-27T02:18:50.078Z,100337.22
2023-01-27T02:21:19.424Z,100342.03
2023-01-27T02:23:56.442Z,100336.97
2023-01-27T02:26:29.665Z,100333.72
2023-01-27T02:28:59.250Z,100335.66
2023-01-27T02:31:27.379Z,100331.94
2023-01-27T02:34:00.872Z,100340.97
2023-01-27T02:36:32.530Z,100327.31
2023-01-27T02:39:01.897Z,100333.91
2023-01-27T02:41:35.687Z,100327.97
2023-01-27T02:44:03.627Z,100326.84
2023-01-27T02:46:31.305Z,100328.50
2023-01-27T02:48:59.147Z,100324.31
2023-01-27T02:51:27.056Z,100324.00
2023-01-27T02:53:54.847Z,100326.75
2023-01-27T02:56:23.413Z,100319.81
2023-01-27T02:58:52.361Z,100318.94
2023-01-27T03:01:27.426Z,100322.91
2023-01-27T03:03:55.107Z,100323.78
2023-01-27T03:06:22.735Z,100318.72
2023-01-27T03:08:50.306Z,100319.72
2023-01-27T03:11:38.567Z,100322.03
2023-01-27T03:14:09.904Z,100329.06
2023-01-27T03:16:55.312Z,100326.00
2023-01-27T03:19:22.899Z,100323.13
2023-01-27T03:21:50.981Z,100329.41
2023-01-27T03:24:19.032Z,100323.66
2023-01-27T03:26:47.577Z,100324.09
2023-01-27T03:29:36.175Z,100324.19
2023-01-27T03:32:04.023Z,100326.19
2023-01-27T03:34:32.702Z,100327.50
2023-01-27T03:37:29.137Z,100339.63
2023-01-27T03:40:14.785Z,100332.81
2023-01-27T03:42:59.805Z,100329.50
2023-01-27T03:45:46.635Z,100333.88
2023-01-27T03:48:14.725Z,100336.56
2023-01-27T03:50:43.811Z,100339.41
2023-01-27T03:53:11.853Z,100339.41
2023-01-27T03:55:40.047Z,100341.38
2023-01-27T03:58:19.476Z,100347.22
2023-01-27T04:00:51.804Z,100350.63
2023-01-27T04:03:38.327Z,100347.22
2023-01-27T04:06:24.654Z,100348.78
2023-01-27T04:08:52.215Z,100353.72
2023-01-27T04:11:37.222Z,100354.59
2023-01-27T04:14:06.511Z,100356.38
2023-01-27T04:16:36.582Z,100362.97
2023-01-27T04:19:05.290Z,100361.22
2023-01-27T04:21:33.724Z,100362.97
2023-01-27T04:24:02.167Z,100364.94
2023-01-27T04:26:33.168Z,100370.56
2023-01-27T04:29:01.785Z,100366.94
2023-01-27T04:31:29.446Z,100365.19
2023-01-27T04:33:58.314Z,100369.56
2023-01-27T04:36:25.941Z,100367.81
2023-01-27T04:38:53.713Z,100366.06
2023-01-27T04:41:21.265Z,100364.50
2023-01-27T04:43:48.853Z,100366.06
2023-01-27T04:46:16.521Z,100361.88
2023-01-27T04:48:44.102Z,100357.25
2023-01-27T04:51:13.055Z,100358.34
2023-01-27T04:53:40.683Z,100361.66
2023-01-27T04:56:21.601Z,100359.34
2023-01-27T04:58:49.232Z,100364.41
2023-01-27T05:01:17.140Z,100352.94
2023-01-27T05:03:44.803Z,100364.28
2023-01-27T05:06:14.557Z,100362.53
2023-01-27T05:08:42.310Z,100359.47
2023-01-27T05:11:10.178Z,100372.66
2023-01-27T05:13:37.822Z,100367.59
2023-01-27T05:16:07.755Z,100364.72
2023-01-27T05:18:35.527Z,100364.97
2023-01-27T05:21:04.205Z,100375.09
2023-01-27T05:23:36.018Z,100364.97
2023-01-27T05:26:12.361Z,100363.97
2023-01-27T05:28:41.560Z,100378.59
2023-01-27T05:31:12.418Z,100370.03
2023-01-27T05:33:40.226Z,100373.31
2023-01-27T05:36:10.054Z,100380.16
2023-01-27T05:38:38.956Z,100375.50
2023-01-27T05:41:08.402Z,100377.16
2023-01-27T05:43:39.610Z,100380.69
2023-01-27T05:46:09.015Z,100384.22
2023-01-27T05:48:37.460Z,100388.59
2023-01-27T05:51:06.293Z,100386.72
2023-01-27T05:53:34.927Z,100389.50
2023-01-27T05:56:04.913Z,100390.47
2023-01-27T05:58:33.438Z,100386.72
2023-01-27T06:01:09.178Z,100384.75
2023-01-27T06:03:37.145Z,100379.69
2023-01-27T06:06:05.327Z,100387.97
2023-01-27T06:08:33.206Z,100388.28
2023-01-27T06:11:01.092Z,100390.94
2023-01-27T06:13:30.602Z,100396.00
2023-01-27T06:15:58.194Z,100395.91
2023-01-27T06:18:25.744Z,100395.13
2023-01-27T06:20:53.293Z,100396.88
2023-01-27T06:23:20.839Z,100404.25
2023-01-27T06:25:49.978Z,100401.50
2023-01-27T06:28:29.199Z,100411.41
2023-01-27T06:31:05.974Z,100405.00
2023-01-27T06:33:33.724Z,100404.81
2023-01-27T06:36:03.425Z,100408.56
2023-01-27T06:38:31.177Z,100415.38
2023-01-27T06:40:58.803Z,100410.31
2023-01-27T06:43:26.552Z,100413.81
2023-01-27T06:45:54.561Z,100410.50
2023-01-27T06:48:23.532Z,100414.28
2023-01-27T06:50:51.359Z,100417.06
2023-01-27T06:53:18.913Z,100418.56
2023-01-27T06:55:46.532Z,100415.78
2023-01-27T06:58:15.714Z,100418.56
2023-01-27T07:00:44.478Z,100424.88
2023-01-27T07:03:12.799Z,100429.09
2023-01-27T07:05:42.823Z,100426.16
2023-01-27T07:08:10.387Z,100427.72
2023-01-27T07:10:38.984Z,100429.28
2023-01-27T07:13:07.439Z,100431.94
2023-01-27T07:15:35.656Z,100439.22
2023-01-27T07:18:04.447Z,100436.50
2023-01-27T07:20:32.882Z,100437.25
2023-01-27T07:23:03.173Z,100450.38
2023-01-27T07:25:32.575Z,100452.91
2023-01-27T07:28:00.534Z,100459.31
2023-01-27T07:30:29.274Z,100461.72
2023-01-27T07:32:56.829Z,100464.81
2023-01-27T07:35:24.612Z,100467.47
2023-01-27T07:37:52.256Z,100472.63
2023-01-27T07:40:21.459Z,100486.97
2023-01-27T07:42:49.067Z,100480.78
2023-01-27T07:45:16.960Z,100479.25
2023-01-27T07:47:44.505Z,100483.22
2023-01-27T07:50:13.330Z,100484.97
2023-01-27T07:52:41.209Z,100489.94
2023-01-27T07:55:09.460Z,100488.63
2023-01-27T07:57:38.314Z,100495.53
2023-01-27T08:00:06.844Z,100506.69
2023-01-27T08:02:39.769Z,100498.22
2023-01-27T08:05:08.084Z,100501.63
2023-01-27T08:07:35.791Z,100504.06
2023-01-27T08:10:03.477Z,100502.16
2023-01-27T08:12:31.132Z,100500.50
2023-01-27T08:15:00.051Z,100505.69
2023-01-27T08:17:27.646Z,100509.00
2023-01-27T08:19:55.259Z,100523.41
2023-01-27T08:22:22.800Z,100510.97
2023-01-27T08:24:50.789Z,100509.44
2023-01-27T08:27:18.669Z,100504.59
2023-01-27T08:29:46.303Z,100499.28
2023-01-27T08:32:15.566Z,100493.34
2023-01-27T08:34:43.322Z,100510.50
2023-01-27T08:37:10.853Z,100509.88
2023-01-27T08:39:38.451Z,100508.53
2023-01-27T08:42:06.161Z,100503.47
2023-01-27T08:44:33.694Z,100497.28
2023-01-27T08:47:01.204Z,100506.19
2023-01-27T08:49:30.091Z,100501.25
2023-01-27T08:51:57.660Z,100505.00
2023-01-27T08:54:25.199Z,100503.09
2023-01-27T08:56:52.895Z,100506.19
2023-01-27T08:59:20.413Z,100505.41
2023-01-27T09:01:48.014Z,100506.94
2023-01-27T09:04:15.619Z,100508.22
2023-01-27T09:06:45.126Z,100505.31
2023-01-27T09:09:12.651Z,100511.69
2023-01-27T09:11:42.649Z,100511.22
2023-01-27T09:14:10.611Z,100512.50
2023-01-27T09:16:38.558Z,100518.78
2023-01-27T09:19:06.234Z,100521.41
2023-01-27T09:21:34.115Z,100523.84
2023-01-27T09:24:03.055Z,100532.66
2023-01-27T09:26:30.642Z,100535.41
2023-01-27T09:28:58.458Z,100538.47
2023-01-27T09:31:26.129Z,100532.50
2023-01-27T09:33:53.746Z,100544.56
2023-01-27T09:36:22.532Z,100535.41
2023-01-27T09:38:55.397Z,100541.78
2023-01-27T09:41:40.032Z,100543.59
2023-01-27T09:44:28.924Z,100544.25
2023-01-27T09:47:13.605Z,100535.09
2023-01-27T09:49:58.802Z,100527.97
2023-01-27T09:52:57.748Z,100529.63
2023-01-27T09:55:40.118Z,100544.09
2023-01-27T09:58:17.703Z,100542.91
2023-01-27T10:00:57.342Z,100542.47
2023-01-27T10:03:43.290Z,100539.34
2023-01-27T10:06:26.084Z,100546.38
2023-01-27T10:09:12.135Z,100539.16
2023-01-27T10:11:45.992Z,100535.44
2023-01-27T10:14:26.023Z,100537.50
2023-01-27T10:17:05.124Z,100532.97
2023-01-27T10:19:47.128Z,100535.94
2023-01-27T10:22:20.895Z,100538.47
2023-01-27T10:25:06.588Z,100540.03
2023-01-27T10:27:38.033Z,100534.94
2023-01-27T10:30:15.130Z,100529.84
2023-01-27T10:32:45.968Z,100537.19
2023-01-27T10:35:19.269Z,100535.41
2023-01-27T10:37:53.017Z,100535.63
2023-01-27T10:40:29.750Z,100530.34
2023-01-27T10:43:05.501Z,100525.88
2023-01-27T10:45:39.636Z,100528.09
2023-01-27T10:48:23.271Z,100524.59
2023-01-27T10:50:56.010Z,100525.25
2023-01-27T10:53:29.911Z,100523.75
2023-01-27T10:56:02.094Z,100527.50
2023-01-27T10:58:46.961Z,100525.75
2023-01-27T11:01:21.718Z,100528.19
2023-01-27T11:03:56.788Z,100529.06
2023-01-27T11:06:26.665Z,100528.84
2023-01-27T11:09:02.976Z,100524.16
2023-01-27T11:11:46.404Z,100519.88
2023-01-27T11:14:22.585Z,100527.63
2023-01-27T11:16:53.484Z,100525.34
2023-01-27T11:19:31.740Z,100523.69
2023-01-27T11:22:09.096Z,100521.34
2023-01-27T11:24:45.479Z,100521.94
2023-01-27T11:27:23.520Z,100522.81
2023-01-27T11:29:59.205Z,100517.53
2023-01-27T11:32:43.839Z,100520.19
2023-01-27T11:35:13.371Z,100514.22
2023-01-27T11:37:42.977Z,100512.47
2023-01-27T11:40:17.907Z,100508.88
2023-01-27T11:42:45.869Z,100509.94
2023-01-27T11:45:16.618Z,100507.19
2023-01-27T11:47:48.663Z,100509.56
2023-01-27T11:50:18.716Z,100512.22
2023-01-27T11:52:49.103Z,100498.63
2023-01-27T11:55:20.041Z,100500.19
2023-01-27T11:57:52.282Z,100498.22
2023-01-27T12:00:24.902Z,100492.75
2023-01-27T12:03:01.929Z,100490.41
2023-01-27T12:05:34.562Z,100487.44
2023-01-27T12:08:04.210Z,100486.66
2023-01-27T12:10:33.857Z,100493.41
2023-01-27T12:13:08.276Z,100479.63
2023-01-27T12:15:37.466Z,100487.84
2023-01-27T12:18:15.003Z,100491.47
2023-01-27T12:20:45.897Z,100491.94
2023-01-27T12:23:22.554Z,100489.94
2023-01-27T12:25:54.913Z,100493.94
2023-01-27T12:28:33.100Z,100492.78
2023-01-27T12:31:06.854Z,100497.50
2023-01-27T12:33:38.484Z,100490.31
2023-01-27T12:36:13.417Z,100495.19
2023-01-27T12:38:46.537Z,100497.25
2023-01-27T12:41:23.388Z,100495.75
2023-01-27T12:43:52.374Z,100484.78
2023-01-27T12:46:23.177Z,100483.63
2023-01-27T12:48:54.209Z,100483.19
2023-01-27T12:51:23.602Z,100488.03
2023-01-27T12:53:52.129Z,100476.81
2023-01-27T12:56:23.214Z,100474.59
2023-01-27T12:58:58.294Z,100474.59
2023-01-27T13:01:30.095Z,100483.47
2023-01-27T13:04:01.904Z,100485.72
2023-01-27T13:06:42.130Z,100486.25
2023-01-27T13:09:24.629Z,100491.09
2023-01-27T13:11:53.267Z,100488.78
2023-01-27T13:14:21.202Z,100492.81
2023-01-27T13:16:53.086Z,100490.47
2023-01-27T13:19:29.949Z,100496.72
2023-01-27T13:21:58.128Z,100494.44
2023-01-27T13:24:34.365Z,100496.41
2023-01-27T13:27:03.446Z,100506.97
2023-01-27T13:29:35.723Z,100509.16
2023-01-27T13:32:10.103Z,100508.19
2023-01-27T13:34:44.956Z,100509.25
2023-01-27T13:37:17.470Z,100510.44
2023-01-27T13:39:57.184Z,100502.59
2023-01-27T13:42:30.111Z,100509.13
2023-01-27T13:45:02.180Z,100509.53
2023-01-27T13:47:36.835Z,100496.84
2023-01-27T13:50:17.395Z,100504.94
2023-01-27T13:52:46.395Z,100503.59
2023-01-27T13:55:15.763Z,100507.16
2023-01-27T13:57:59.053Z,100502.75
2023-01-27T14:00:36.408Z,100510.09
2023-01-27T14:03:42.016Z,100505.13
2023-01-27T14:06:25.550Z,100505.63
2023-01-27T14:09:32.321Z,100500.53
2023-01-27T14:12:08.338Z,100506.31
2023-01-27T14:14:57.748Z,100502.59
2023-01-27T14:17:38.888Z,100505.75
2023-01-27T14:20:26.279Z,100504.84
2023-01-27T14:23:05.712Z,100508.38
2023-01-27T14:25:42.079Z,100504.06
2023-01-27T14:28:15.295Z,100507.50
2023-01-27T14:30:45.327Z,100501.94
2023-01-27T14:33:21.965Z,100499.09
2023-01-27T14:35:54.208Z,100499.75
2023-01-27T14:38:31.166Z,100514.56
2023-01-27T14:41:15.438Z,100519.84
2023-01-27T14:43:48.805Z,100520.91
2023-01-27T14:46:20.608Z,100523.75
2023-01-27T14:49:02.361Z,100527.19
2023-01-27T14:51:39.537Z,100537.53
2023-01-27T14:54:24.277Z,100537.72
2023-01-27T14:57:07.430Z,100531.75
2023-01-27T14:59:45.629Z,100529.63
2023-01-27T15:02:31.791Z,100528.34
2023-01-27T15:05:09.450Z,100519.44
2023-01-27T15:07:47.480Z,100527.06
2023-01-27T15:10:26.920Z,100521.69
2023-01-27T15:13:37.235Z,100515.03
2023-01-27T15:16:22.752Z,100520.63
2023-01-27T15:19:11.723Z,100526.78
2023-01-27T15:21:56.995Z,100529.50
2023-01-27T15:24:40.699Z,100537.53
2023-01-27T15:27:10.390Z,100538.22
2023-01-27T15:29:38.730Z,100531.94
2023-01-27T15:32:14.851Z,100530.38
2023-01-27T15:34:44.442Z,100536.19
2023-01-27T15:37:20.471Z,100533.25
2023-01-27T15:40:04.382Z,100540.66
2023-01-27T15:45:30.703Z,100539.41
2023-01-27T15:48:01.299Z,100540.94
2023-01-27T15:50:32.165Z,100553.56
2023-01-27T15:53:06.912Z,100553.94
2023-01-27T15:55:38.393Z,100558.44
2023-01-27T15:58:22.180Z,100554.91
2023-01-27T16:00:53.185Z,100563.13
2023-01-27T16:03:26.746Z,100560.50
2023-01-27T16:05:57.573Z,100570.53
2023-01-27T16:08:30.650Z,100566.69
2023-01-27T16:11:39.059Z,100578.91
2023-01-27T16:14:40.707Z,100568.81
2023-01-27T16:17:24.832Z,100574.88
2023-01-27T16:20:23.363Z,100569.56
2023-01-27T16:22:58.653Z,100576.22
2023-01-27T16:25:32.207Z,100575.13
2023-01-27T16:28:04.620Z,100573.38
2023-01-27T16:30:36.381Z,100580.91
2023-01-27T16:33:08.523Z,100580.69
2023-01-27T16:35:45.038Z,100576.94
2023-01-27T16:38:23.325Z,100573.44
2023-01-27T16:40:54.953Z,100573.63
2023-01-27T16:43:26.482Z,100578.94
2023-01-27T16:45:56.628Z,100582.81
2023-01-27T16:48:30.521Z,100583.59
2023-01-27T16:51:19.572Z,100582.41
2023-01-27T16:53:51.635Z,100591.56
2023-01-27T16:56:25.888Z,100585.31
2023-01-27T16:59:03.880Z,100587.66
2023-01-27T17:01:42.049Z,100588.63
2023-01-27T17:04:20.330Z,100592.75
2023-01-27T17:06:49.676Z,100592.66
2023-01-27T17:09:22.768Z,100596.06
2023-01-27T17:11:50.578Z,100607.75
2023-01-27T17:14:30.027Z,100606.00
2023-01-27T17:17:00.811Z,100594.09
2023-01-27T17:19:32.333Z,100600.69
2023-01-27T17:22:02.230Z,100599.94
2023-01-27T17:24:32.226Z,100602.06
2023-01-27T17:27:03.978Z,100610.25
2023-01-27T17:29:36.182Z,100607.50
2023-01-27T17:32:05.367Z,100607.59
2023-01-27T17:34:34.510Z,100608.28
2023-01-27T17:37:14.819Z,100604.31
2023-01-27T17:39:42.749Z,100610.72
2023-01-27T17:42:16.706Z,100610.81
2023-01-27T17:44:44.511Z,100612.56
2023-01-27T17:47:14.903Z,100613.91
2023-01-27T17:49:44.986Z,100616.44
2023-01-27T17:52:18.700Z,100618.56
2023-01-27T17:54:47.344Z,100621.91
2023-01-27T17:57:21.499Z,100614.47
2023-01-27T17:59:58.948Z,100612.63
2023-01-27T18:02:29.715Z,100620.13
2023-01-27T18:05:02.176Z,100626.19
2023-01-27T18:07:30.523Z,100627.94
2023-01-27T18:09:58.325Z,100616.25
2023-01-27T18:12:31.671Z,100623.56
2023-01-27T18:14:59.166Z,100619.34
2023-01-27T18:17:27.861Z,100623.66
2023-01-27T18:19:57.201Z,100627.75
2023-01-27T18:22:27.038Z,100629.28
2023-01-27T18:24:57.042Z,100621.91
2023-01-27T18:27:29.813Z,100625.97
2023-01-27T18:30:01.956Z,100619.91
2023-01-27T18:32:40.136Z,100624.00
2023-01-27T18:35:24.695Z,100628.31
2023-01-27T18:37:56.226Z,100625.53
2023-01-27T18:40:28.655Z,100625.34
2023-01-27T18:42:57.696Z,100628.63
2023-01-27T18:45:26.325Z,100629.41
2023-01-27T18:47:53.949Z,100634.16
2023-01-27T18:50:23.332Z,100642.38
2023-01-27T18:52:51.901Z,100627.34
2023-01-27T18:55:22.544Z,100634.06
2023-01-27T18:57:53.625Z,100636.59
2023-01-27T19:00:23.098Z,100641.69
2023-01-27T19:02:52.888Z,100638.38
2023-01-27T19:05:22.723Z,100644.13
2023-01-27T19:07:50.890Z,100645.88
2023-01-27T19:10:24.760Z,100645.00
2023-01-27T19:12:54.197Z,100649.19
2023-01-27T19:15:23.882Z,100644.56
2023-01-27T19:17:52.802Z,100655.38
2023-01-27T19:20:22.391Z,100653.63
2023-01-27T19:22:51.648Z,100658.03
2023-01-27T19:25:21.722Z,100657.13
2023-01-27T19:27:52.014Z,100656.72
2023-01-27T19:30:27.362Z,100664.53
2023-01-27T19:32:56.100Z,100658.66
2023-01-27T19:35:25.045Z,100662.41
2023-01-27T19:37:56.060Z,100662.53
2023-01-27T19:40:26.612Z,100657.56
2023-01-27T19:42:54.333Z,100661.31
2023-01-27T19:45:23.085Z,100664.81
2023-01-27T19:47:50.919Z,100658.53
2023-01-27T19:50:22.848Z,100662.84
2023-01-27T19:52:50.722Z,100673.59
2023-01-27T19:55:21.293Z,100671.59
2023-01-27T19:57:52.631Z,100673.91
2023-01-27T20:00:26.689Z,100679.31
2023-01-27T20:02:54.856Z,100670.16
2023-01-27T20:05:22.807Z,100672.13
2023-01-27T20:07:51.562Z,100667.06
2023-01-27T20:10:22.162Z,100676.34
2023-01-27T20:12:56.247Z,100675.22
2023-01-27T20:15:25.157Z,100673.47
2023-01-27T20:17:53.896Z,100677.03
2023-01-27T20:20:21.923Z,100668.94
2023-01-27T20:22:50.389Z,100669.97
2023-01-27T20:25:19.741Z,100670.16
2023-01-27T20:27:49.800Z,100673.69
2023-01-27T20:30:19.709Z,100675.56
2023-01-27T20:32:47.965Z,100673.13
2023-01-27T20:35:17.373Z,100682.72
2023-01-27T20:37:47.233Z,100676.66
2023-01-27T20:40:17.207Z,100680.19
2023-01-27T20:42:44.892Z,100681.13
2023-01-27T20:45:13.948Z,100685.75
2023-01-27T20:47:43.215Z,100680.59
2023-01-27T20:50:11.937Z,100686.63
2023-01-27T20:52:40.008Z,100691.28
2023-01-27T20:55:09.443Z,100688.88
2023-01-27T20:57:37.092Z,100687.91
2023-01-27T21:00:05.041Z,100688.47
2023-01-27T21:02:32.670Z,100700.19
2023-01-27T21:05:01.655Z,100699.94
2023-01-27T21:07:29.553Z,100692.69
2023-01-27T21:09:57.170Z,100696.53
2023-01-27T21:12:25.630Z,100713.44
2023-01-27T21:14:53.442Z,100700.59
2023-01-27T21:17:21.002Z,100703.72
2023-01-27T21:19:48.620Z,100705.25
2023-01-27T21:22:17.565Z,100704.16
2023-01-27T21:24:45.149Z,100706.13
2023-01-27T21:27:12.890Z,100713.06
2023-01-27T21:29:42.296Z,100706.13
2023-01-27T21:32:09.898Z,100703.47
2023-01-27T21:34:37.525Z,100700.81
2023-01-27T21:37:05.042Z,100699.94
2023-01-27T21:39:33.983Z,100708.53
2023-01-27T21:42:19.256Z,100706.69
2023-01-27T21:45:16.854Z,100709.00
2023-01-27T21:47:44.744Z,100712.53
2023-01-27T21:50:14.458Z,100711.66
2023-01-27T21:52:44.927Z,100708.88
2023-01-27T21:55:16.786Z,100707.13
2023-01-27T21:57:45.793Z,100708.09
2023-01-27T22:00:15.074Z,100708.78
2023-01-27T22:02:43.709Z,100713.63
2023-01-27T22:05:13.000Z,100710.44
2023-01-27T22:07:41.959Z,100713.97
2023-01-27T22:10:16.728Z,100702.38
2023-01-27T22:12:44.416Z,100704.59
2023-01-27T22:15:13.851Z,100710.66
2023-01-27T22:17:42.235Z,100701.28
2023-01-27T22:20:13.684Z,100703.91
2023-01-27T22:22:41.264Z,100703.00
2023-01-27T22:25:10.157Z,100704.53
2023-01-27T22:27:41.241Z,100705.56
2023-01-27T22:30:10.484Z,100707.88
2023-01-27T22:32:38.098Z,100705.41
2023-01-27T22:35:06.802Z,100719.13
2023-01-27T22:37:34.919Z,100711.41
2023-01-27T22:40:02.689Z,100713.16
2023-01-27T22:42:30.323Z,100716.91
2023-01-27T22:44:59.331Z,100714.38
2023-01-27T22:47:26.946Z,100712.81
2023-01-27T22:49:54.557Z,100711.84
2023-01-27T22:52:22.108Z,100713.59
2023-01-27T22:54:49.675Z,100713.38
2023-01-27T22:57:17.592Z,100707.41
2023-01-27T22:59:45.191Z,100708.28
2023-01-27T23:02:14.119Z,100699.91
2023-01-27T23:04:41.687Z,100705.00
2023-01-27T23:07:09.246Z,100696.59
2023-01-27T23:09:36.780Z,100697.38
2023-01-27T23:12:04.616Z,100698.13
2023-01-27T23:14:32.160Z,100707.63
2023-01-27T23:16:59.764Z,100710.09
2023-01-27T23:19:29.094Z,100711.59
2023-01-27T23:21:56.696Z,100707.41
2023-01-27T23:24:24.252Z,100701.69
2023-01-27T23:26:51.901Z,100701.69
2023-01-27T23:29:24.730Z,100707.53
2023-01-27T23:31:53.600Z,100705.00
2023-01-27T23:34:21.589Z,100707.63
2023-01-27T23:36:50.687Z,100705.00
2023-01-27T23:39:18.306Z,100703.22
2023-01-27T23:41:45.982Z,100703.44
2023-01-27T23:44:13.882Z,100687.66
2023-01-27T23:46:43.177Z,100695.47
2023-01-27T23:49:11.542Z,100693.81
2023-01-27T23:51:39.096Z,100699.00
2023-01-27T23:54:08.071Z,100690.38
2023-01-27T23:56:35.620Z,100683.34
2023-01-27T23:59:03.207Z,100685.31
